sensor_id;sensor_type;location;lat;lon;timestamp;P1;durP1;ratioP1;P2;durP2;ratioP2
44145;SDS011;29809;52.432;4.780;2023-11-19T00:00:14;8.25;;;2.47;;
44145;SDS011;29809;52.432;4.780;2023-11-19T00:02:40;11.95;;;2.92;;
44145;SDS011;29809;52.432;4.780;2023-11-19T00:05:06;11.65;;;2.97;;
44145;SDS011;29809;52.432;4.780;2023-11-19T00:07:35;14.57;;;3.00;;
44145;SDS011;29809;52.432;4.780;2023-11-19T00:10:00;10.30;;;3.45;;
44145;SDS011;29809;52.432;4.780;2023-11-19T00:12:35;13.25;;;2.95;;
44145;SDS011;29809;52.432;4.780;2023-11-19T00:15:01;11.52;;;3.72;;
44145;SDS011;29809;52.432;4.780;2023-11-19T00:17:26;10.93;;;3.30;;
44145;SDS011;29809;52.432;4.780;2023-11-19T00:19:52;10.75;;;3.22;;
44145;SDS011;29809;52.432;4.780;2023-11-19T00:22:17;14.38;;;3.38;;
44145;SDS011;29809;52.432;4.780;2023-11-19T00:24:42;11.07;;;3.35;;
44145;SDS011;29809;52.432;4.780;2023-11-19T00:27:07;13.00;;;3.08;;
44145;SDS011;29809;52.432;4.780;2023-11-19T00:29:33;13.75;;;3.75;;
44145;SDS011;29809;52.432;4.780;2023-11-19T00:31:58;7.95;;;2.67;;
44145;SDS011;29809;52.432;4.780;2023-11-19T00:34:23;15.07;;;3.22;;
44145;SDS011;29809;52.432;4.780;2023-11-19T00:36:48;9.18;;;2.90;;
44145;SDS011;29809;52.432;4.780;2023-11-19T00:39:14;12.85;;;3.15;;
44145;SDS011;29809;52.432;4.780;2023-11-19T00:41:40;12.82;;;3.03;;
44145;SDS011;29809;52.432;4.780;2023-11-19T00:44:05;18.02;;;4.22;;
44145;SDS011;29809;52.432;4.780;2023-11-19T00:46:30;12.63;;;3.33;;
44145;SDS011;29809;52.432;4.780;2023-11-19T00:48:57;12.55;;;3.08;;
44145;SDS011;29809;52.432;4.780;2023-11-19T00:51:24;11.95;;;2.80;;
44145;SDS011;29809;52.432;4.780;2023-11-19T00:53:49;14.60;;;3.10;;
44145;SDS011;29809;52.432;4.780;2023-11-19T00:56:15;11.10;;;2.70;;
44145;SDS011;29809;52.432;4.780;2023-11-19T00:58:42;13.88;;;3.47;;
44145;SDS011;29809;52.432;4.780;2023-11-19T01:01:07;10.75;;;2.88;;
44145;SDS011;29809;52.432;4.780;2023-11-19T01:03:33;15.38;;;3.75;;
44145;SDS011;29809;52.432;4.780;2023-11-19T01:05:58;11.68;;;3.45;;
44145;SDS011;29809;52.432;4.780;2023-11-19T01:08:24;12.27;;;3.45;;
44145;SDS011;29809;52.432;4.780;2023-11-19T01:10:50;14.30;;;3.03;;
44145;SDS011;29809;52.432;4.780;2023-11-19T01:13:15;9.98;;;3.10;;
44145;SDS011;29809;52.432;4.780;2023-11-19T01:15:40;13.98;;;3.30;;
44145;SDS011;29809;52.432;4.780;2023-11-19T01:18:06;12.20;;;3.60;;
44145;SDS011;29809;52.432;4.780;2023-11-19T01:20:34;14.98;;;4.55;;
44145;SDS011;29809;52.432;4.780;2023-11-19T01:22:59;18.45;;;3.72;;
44145;SDS011;29809;52.432;4.780;2023-11-19T01:25:25;14.55;;;3.67;;
44145;SDS011;29809;52.432;4.780;2023-11-19T01:27:50;12.90;;;4.07;;
44145;SDS011;29809;52.432;4.780;2023-11-19T01:30:15;17.52;;;4.65;;
44145;SDS011;29809;52.432;4.780;2023-11-19T01:32:40;19.55;;;4.50;;
44145;SDS011;29809;52.432;4.780;2023-11-19T01:35:06;19.67;;;4.10;;
44145;SDS011;29809;52.432;4.780;2023-11-19T01:37:33;13.23;;;3.95;;
44145;SDS011;29809;52.432;4.780;2023-11-19T01:39:59;14.45;;;3.88;;
44145;SDS011;29809;52.432;4.780;2023-11-19T01:42:24;15.70;;;3.83;;
44145;SDS011;29809;52.432;4.780;2023-11-19T01:44:59;15.63;;;4.63;;
44145;SDS011;29809;52.432;4.780;2023-11-19T01:47:27;14.27;;;4.45;;
44145;SDS011;29809;52.432;4.780;2023-11-19T01:49:53;16.63;;;3.63;;
44145;SDS011;29809;52.432;4.780;2023-11-19T01:52:19;13.88;;;4.55;;
44145;SDS011;29809;52.432;4.780;2023-11-19T01:54:45;16.38;;;3.88;;
44145;SDS011;29809;52.432;4.780;2023-11-19T01:57:10;16.98;;;4.20;;
44145;SDS011;29809;52.432;4.780;2023-11-19T01:59:36;19.25;;;4.32;;
44145;SDS011;29809;52.432;4.780;2023-11-19T02:02:01;13.82;;;3.83;;
44145;SDS011;29809;52.432;4.780;2023-11-19T02:04:26;17.95;;;4.72;;
44145;SDS011;29809;52.432;4.780;2023-11-19T02:06:52;23.00;;;4.68;;
44145;SDS011;29809;52.432;4.780;2023-11-19T02:09:19;18.92;;;4.78;;
44145;SDS011;29809;52.432;4.780;2023-11-19T02:11:44;14.85;;;3.92;;
44145;SDS011;29809;52.432;4.780;2023-11-19T02:14:10;18.50;;;4.40;;
44145;SDS011;29809;52.432;4.780;2023-11-19T02:16:36;17.65;;;3.50;;
44145;SDS011;29809;52.432;4.780;2023-11-19T02:19:01;15.27;;;4.22;;
44145;SDS011;29809;52.432;4.780;2023-11-19T02:21:26;17.23;;;4.68;;
44145;SDS011;29809;52.432;4.780;2023-11-19T02:23:51;15.15;;;4.15;;
44145;SDS011;29809;52.432;4.780;2023-11-19T02:28:48;17.30;;;4.53;;
44145;SDS011;29809;52.432;4.780;2023-11-19T02:31:13;16.08;;;4.85;;
44145;SDS011;29809;52.432;4.780;2023-11-19T02:33:39;15.20;;;3.75;;
44145;SDS011;29809;52.432;4.780;2023-11-19T02:36:05;22.25;;;4.50;;
44145;SDS011;29809;52.432;4.780;2023-11-19T02:38:32;19.40;;;4.53;;
44145;SDS011;29809;52.432;4.780;2023-11-19T02:40:57;20.40;;;4.63;;
44145;SDS011;29809;52.432;4.780;2023-11-19T02:43:22;18.70;;;4.68;;
44145;SDS011;29809;52.432;4.780;2023-11-19T02:45:48;19.95;;;5.00;;
44145;SDS011;29809;52.432;4.780;2023-11-19T02:48:13;25.60;;;5.18;;
44145;SDS011;29809;52.432;4.780;2023-11-19T02:50:40;19.98;;;4.43;;
44145;SDS011;29809;52.432;4.780;2023-11-19T02:53:06;16.23;;;4.38;;
44145;SDS011;29809;52.432;4.780;2023-11-19T02:55:31;15.27;;;3.83;;
44145;SDS011;29809;52.432;4.780;2023-11-19T02:58:02;16.10;;;3.95;;
44145;SDS011;29809;52.432;4.780;2023-11-19T03:00:33;19.08;;;5.43;;
44145;SDS011;29809;52.432;4.780;2023-11-19T03:03:05;19.13;;;4.80;;
44145;SDS011;29809;52.432;4.780;2023-11-19T03:05:45;19.33;;;4.28;;
44145;SDS011;29809;52.432;4.780;2023-11-19T03:08:11;21.67;;;5.43;;
44145;SDS011;29809;52.432;4.780;2023-11-19T03:10:37;20.52;;;5.38;;
44145;SDS011;29809;52.432;4.780;2023-11-19T03:13:02;16.23;;;4.13;;
44145;SDS011;29809;52.432;4.780;2023-11-19T03:15:28;22.63;;;4.43;;
44145;SDS011;29809;52.432;4.780;2023-11-19T03:17:53;23.92;;;4.78;;
44145;SDS011;29809;52.432;4.780;2023-11-19T03:20:19;20.40;;;5.22;;
44145;SDS011;29809;52.432;4.780;2023-11-19T03:22:45;17.50;;;4.80;;
44145;SDS011;29809;52.432;4.780;2023-11-19T03:25:11;14.43;;;4.35;;
44145;SDS011;29809;52.432;4.780;2023-11-19T03:27:39;18.80;;;4.65;;
44145;SDS011;29809;52.432;4.780;2023-11-19T03:30:07;17.92;;;4.72;;
44145;SDS011;29809;52.432;4.780;2023-11-19T03:32:32;19.13;;;5.35;;
44145;SDS011;29809;52.432;4.780;2023-11-19T03:34:58;20.10;;;5.40;;
44145;SDS011;29809;52.432;4.780;2023-11-19T03:37:23;12.88;;;4.10;;
44145;SDS011;29809;52.432;4.780;2023-11-19T03:39:49;23.30;;;6.53;;
44145;SDS011;29809;52.432;4.780;2023-11-19T03:42:14;24.98;;;6.22;;
44145;SDS011;29809;52.432;4.780;2023-11-19T03:44:39;17.52;;;4.60;;
44145;SDS011;29809;52.432;4.780;2023-11-19T03:47:04;16.08;;;3.95;;
44145;SDS011;29809;52.432;4.780;2023-11-19T03:49:30;20.13;;;4.20;;
44145;SDS011;29809;52.432;4.780;2023-11-19T03:51:55;16.45;;;4.63;;
44145;SDS011;29809;52.432;4.780;2023-11-19T03:54:20;16.20;;;4.35;;
44145;SDS011;29809;52.432;4.780;2023-11-19T03:56:48;18.60;;;5.40;;
44145;SDS011;29809;52.432;4.780;2023-11-19T03:59:13;20.98;;;5.45;;
44145;SDS011;29809;52.432;4.780;2023-11-19T04:01:39;19.75;;;4.82;;
44145;SDS011;29809;52.432;4.780;2023-11-19T04:04:04;17.40;;;5.18;;
44145;SDS011;29809;52.432;4.780;2023-11-19T04:06:29;18.00;;;4.75;;
44145;SDS011;29809;52.432;4.780;2023-11-19T04:08:54;23.73;;;5.40;;
44145;SDS011;29809;52.432;4.780;2023-11-19T04:11:20;15.15;;;4.38;;
44145;SDS011;29809;52.432;4.780;2023-11-19T04:13:45;22.55;;;5.03;;
44145;SDS011;29809;52.432;4.780;2023-11-19T04:16:10;17.70;;;4.45;;
44145;SDS011;29809;52.432;4.780;2023-11-19T04:18:36;16.58;;;4.95;;
44145;SDS011;29809;52.432;4.780;2023-11-19T04:21:01;17.52;;;3.65;;
44145;SDS011;29809;52.432;4.780;2023-11-19T04:23:26;19.63;;;5.63;;
44145;SDS011;29809;52.432;4.780;2023-11-19T04:25:51;17.67;;;4.43;;
44145;SDS011;29809;52.432;4.780;2023-11-19T04:28:17;19.08;;;4.93;;
44145;SDS011;29809;52.432;4.780;2023-11-19T04:30:42;16.13;;;4.78;;
44145;SDS011;29809;52.432;4.780;2023-11-19T04:33:08;23.27;;;5.65;;
44145;SDS011;29809;52.432;4.780;2023-11-19T04:35:33;16.58;;;4.50;;
44145;SDS011;29809;52.432;4.780;2023-11-19T04:37:58;17.85;;;4.60;;
44145;SDS011;29809;52.432;4.780;2023-11-19T04:40:24;22.88;;;4.82;;
44145;SDS011;29809;52.432;4.780;2023-11-19T04:42:49;26.05;;;4.75;;
44145;SDS011;29809;52.432;4.780;2023-11-19T04:45:14;17.05;;;4.65;;
44145;SDS011;29809;52.432;4.780;2023-11-19T04:47:41;18.35;;;4.10;;
44145;SDS011;29809;52.432;4.780;2023-11-19T04:50:06;20.73;;;4.45;;
44145;SDS011;29809;52.432;4.780;2023-11-19T04:52:32;19.88;;;4.47;;
44145;SDS011;29809;52.432;4.780;2023-11-19T04:54:57;19.25;;;4.93;;
44145;SDS011;29809;52.432;4.780;2023-11-19T04:57:22;20.35;;;4.55;;
44145;SDS011;29809;52.432;4.780;2023-11-19T04:59:47;16.88;;;5.43;;
44145;SDS011;29809;52.432;4.780;2023-11-19T05:02:12;14.55;;;4.25;;
44145;SDS011;29809;52.432;4.780;2023-11-19T05:04:42;21.55;;;4.40;;
44145;SDS011;29809;52.432;4.780;2023-11-19T05:07:08;16.73;;;4.53;;
44145;SDS011;29809;52.432;4.780;2023-11-19T05:09:33;21.35;;;5.20;;
44145;SDS011;29809;52.432;4.780;2023-11-19T05:11:58;21.30;;;5.68;;
44145;SDS011;29809;52.432;4.780;2023-11-19T05:14:23;22.27;;;4.85;;
44145;SDS011;29809;52.432;4.780;2023-11-19T05:16:49;17.10;;;4.50;;
44145;SDS011;29809;52.432;4.780;2023-11-19T05:19:14;22.92;;;5.25;;
44145;SDS011;29809;52.432;4.780;2023-11-19T05:21:41;20.80;;;5.50;;
44145;SDS011;29809;52.432;4.780;2023-11-19T05:24:07;21.63;;;5.40;;
44145;SDS011;29809;52.432;4.780;2023-11-19T05:26:32;22.20;;;4.78;;
44145;SDS011;29809;52.432;4.780;2023-11-19T05:28:57;16.30;;;4.28;;
44145;SDS011;29809;52.432;4.780;2023-11-19T05:31:22;22.50;;;5.47;;
44145;SDS011;29809;52.432;4.780;2023-11-19T05:33:47;25.52;;;4.75;;
44145;SDS011;29809;52.432;4.780;2023-11-19T05:36:13;19.70;;;5.40;;
44145;SDS011;29809;52.432;4.780;2023-11-19T05:38:38;17.58;;;4.97;;
44145;SDS011;29809;52.432;4.780;2023-11-19T05:41:03;24.13;;;6.22;;
44145;SDS011;29809;52.432;4.780;2023-11-19T05:43:29;23.33;;;5.13;;
44145;SDS011;29809;52.432;4.780;2023-11-19T05:45:55;18.13;;;4.35;;
44145;SDS011;29809;52.432;4.780;2023-11-19T05:48:20;17.33;;;5.13;;
44145;SDS011;29809;52.432;4.780;2023-11-19T05:50:45;23.25;;;5.78;;
44145;SDS011;29809;52.432;4.780;2023-11-19T05:53:11;18.92;;;4.47;;
44145;SDS011;29809;52.432;4.780;2023-11-19T05:55:38;19.63;;;4.93;;
44145;SDS011;29809;52.432;4.780;2023-11-19T05:58:11;24.70;;;5.22;;
44145;SDS011;29809;52.432;4.780;2023-11-19T06:00:37;18.73;;;4.60;;
44145;SDS011;29809;52.432;4.780;2023-11-19T06:03:02;21.20;;;5.15;;
44145;SDS011;29809;52.432;4.780;2023-11-19T06:05:27;21.65;;;5.20;;
44145;SDS011;29809;52.432;4.780;2023-11-19T06:07:53;17.65;;;4.30;;
44145;SDS011;29809;52.432;4.780;2023-11-19T06:10:18;23.48;;;4.50;;
44145;SDS011;29809;52.432;4.780;2023-11-19T06:12:45;20.27;;;4.78;;
44145;SDS011;29809;52.432;4.780;2023-11-19T06:15:11;19.70;;;5.68;;
44145;SDS011;29809;52.432;4.780;2023-11-19T06:17:36;18.10;;;5.05;;
44145;SDS011;29809;52.432;4.780;2023-11-19T06:20:01;20.63;;;4.93;;
44145;SDS011;29809;52.432;4.780;2023-11-19T06:22:29;18.35;;;4.35;;
44145;SDS011;29809;52.432;4.780;2023-11-19T06:24:54;19.23;;;5.60;;
44145;SDS011;29809;52.432;4.780;2023-11-19T06:27:20;25.40;;;4.95;;
44145;SDS011;29809;52.432;4.780;2023-11-19T06:29:46;23.55;;;4.75;;
44145;SDS011;29809;52.432;4.780;2023-11-19T06:32:11;18.10;;;4.43;;
44145;SDS011;29809;52.432;4.780;2023-11-19T06:34:37;20.88;;;4.78;;
44145;SDS011;29809;52.432;4.780;2023-11-19T06:37:02;17.70;;;4.68;;
44145;SDS011;29809;52.432;4.780;2023-11-19T06:39:29;19.52;;;4.53;;
44145;SDS011;29809;52.432;4.780;2023-11-19T06:41:54;22.95;;;4.60;;
44145;SDS011;29809;52.432;4.780;2023-11-19T06:44:19;23.08;;;6.20;;
44145;SDS011;29809;52.432;4.780;2023-11-19T06:46:44;20.10;;;4.93;;
44145;SDS011;29809;52.432;4.780;2023-11-19T06:49:10;15.82;;;4.82;;
44145;SDS011;29809;52.432;4.780;2023-11-19T06:51:35;16.73;;;4.32;;
44145;SDS011;29809;52.432;4.780;2023-11-19T06:54:00;18.15;;;4.78;;
44145;SDS011;29809;52.432;4.780;2023-11-19T06:56:26;18.85;;;5.05;;
44145;SDS011;29809;52.432;4.780;2023-11-19T06:58:51;19.23;;;4.32;;
44145;SDS011;29809;52.432;4.780;2023-11-19T07:01:17;21.25;;;5.63;;
44145;SDS011;29809;52.432;4.780;2023-11-19T07:03:44;20.77;;;4.40;;
44145;SDS011;29809;52.432;4.780;2023-11-19T07:06:09;23.90;;;4.53;;
44145;SDS011;29809;52.432;4.780;2023-11-19T07:08:35;17.88;;;4.70;;
44145;SDS011;29809;52.432;4.780;2023-11-19T07:11:01;18.70;;;4.18;;
44145;SDS011;29809;52.432;4.780;2023-11-19T07:13:27;21.45;;;5.00;;
44145;SDS011;29809;52.432;4.780;2023-11-19T07:15:53;16.35;;;4.25;;
44145;SDS011;29809;52.432;4.780;2023-11-19T07:18:18;18.70;;;4.30;;
44145;SDS011;29809;52.432;4.780;2023-11-19T07:20:43;15.52;;;4.05;;
44145;SDS011;29809;52.432;4.780;2023-11-19T07:23:11;20.70;;;4.82;;
44145;SDS011;29809;52.432;4.780;2023-11-19T07:25:37;17.15;;;4.43;;
44145;SDS011;29809;52.432;4.780;2023-11-19T07:28:02;20.75;;;5.25;;
44145;SDS011;29809;52.432;4.780;2023-11-19T07:30:29;16.50;;;4.15;;
44145;SDS011;29809;52.432;4.780;2023-11-19T07:32:54;17.38;;;4.22;;
44145;SDS011;29809;52.432;4.780;2023-11-19T07:35:20;23.40;;;4.60;;
44145;SDS011;29809;52.432;4.780;2023-11-19T07:37:45;21.08;;;4.93;;
44145;SDS011;29809;52.432;4.780;2023-11-19T07:40:12;20.33;;;4.63;;
44145;SDS011;29809;52.432;4.780;2023-11-19T07:42:38;19.98;;;5.45;;
44145;SDS011;29809;52.432;4.780;2023-11-19T07:45:03;21.17;;;5.20;;
44145;SDS011;29809;52.432;4.780;2023-11-19T07:47:28;17.50;;;4.53;;
44145;SDS011;29809;52.432;4.780;2023-11-19T07:49:54;19.88;;;5.28;;
44145;SDS011;29809;52.432;4.780;2023-11-19T07:52:19;21.35;;;4.93;;
44145;SDS011;29809;52.432;4.780;2023-11-19T07:54:44;15.23;;;3.80;;
44145;SDS011;29809;52.432;4.780;2023-11-19T07:57:09;15.50;;;3.90;;
44145;SDS011;29809;52.432;4.780;2023-11-19T07:59:35;15.75;;;5.30;;
44145;SDS011;29809;52.432;4.780;2023-11-19T08:02:00;18.42;;;4.38;;
44145;SDS011;29809;52.432;4.780;2023-11-19T08:04:25;17.42;;;4.35;;
44145;SDS011;29809;52.432;4.780;2023-11-19T08:06:50;18.10;;;5.07;;
44145;SDS011;29809;52.432;4.780;2023-11-19T08:09:16;19.90;;;4.90;;
44145;SDS011;29809;52.432;4.780;2023-11-19T08:11:42;18.23;;;4.40;;
44145;SDS011;29809;52.432;4.780;2023-11-19T08:14:07;32.63;;;6.78;;
44145;SDS011;29809;52.432;4.780;2023-11-19T08:16:33;34.45;;;9.57;;
44145;SDS011;29809;52.432;4.780;2023-11-19T08:18:58;43.40;;;11.35;;
44145;SDS011;29809;52.432;4.780;2023-11-19T08:21:24;50.75;;;11.27;;
44145;SDS011;29809;52.432;4.780;2023-11-19T08:23:49;38.78;;;10.43;;
44145;SDS011;29809;52.432;4.780;2023-11-19T08:26:14;38.25;;;9.45;;
44145;SDS011;29809;52.432;4.780;2023-11-19T08:28:40;25.30;;;7.20;;
44145;SDS011;29809;52.432;4.780;2023-11-19T08:31:05;35.17;;;7.60;;
44145;SDS011;29809;52.432;4.780;2023-11-19T08:33:30;35.03;;;6.57;;
44145;SDS011;29809;52.432;4.780;2023-11-19T08:35:56;22.95;;;6.93;;
44145;SDS011;29809;52.432;4.780;2023-11-19T08:38:21;27.63;;;6.60;;
44145;SDS011;29809;52.432;4.780;2023-11-19T08:40:47;22.90;;;6.18;;
44145;SDS011;29809;52.432;4.780;2023-11-19T08:43:12;23.02;;;5.78;;
44145;SDS011;29809;52.432;4.780;2023-11-19T08:45:37;20.95;;;5.32;;
44145;SDS011;29809;52.432;4.780;2023-11-19T08:48:02;20.35;;;5.65;;
44145;SDS011;29809;52.432;4.780;2023-11-19T08:50:28;23.45;;;5.35;;
44145;SDS011;29809;52.432;4.780;2023-11-19T08:52:53;22.00;;;5.50;;
44145;SDS011;29809;52.432;4.780;2023-11-19T08:55:18;14.95;;;5.20;;
44145;SDS011;29809;52.432;4.780;2023-11-19T08:57:43;17.95;;;5.85;;
44145;SDS011;29809;52.432;4.780;2023-11-19T09:00:09;23.92;;;5.78;;
44145;SDS011;29809;52.432;4.780;2023-11-19T09:02:37;20.42;;;5.57;;
44145;SDS011;29809;52.432;4.780;2023-11-19T09:05:03;19.08;;;4.65;;
44145;SDS011;29809;52.432;4.780;2023-11-19T09:07:28;22.33;;;5.20;;
44145;SDS011;29809;52.432;4.780;2023-11-19T09:09:54;18.55;;;4.35;;
44145;SDS011;29809;52.432;4.780;2023-11-19T09:12:19;21.42;;;5.10;;
44145;SDS011;29809;52.432;4.780;2023-11-19T09:14:44;18.33;;;5.10;;
44145;SDS011;29809;52.432;4.780;2023-11-19T09:17:10;18.05;;;4.70;;
44145;SDS011;29809;52.432;4.780;2023-11-19T09:19:36;22.38;;;4.28;;
44145;SDS011;29809;52.432;4.780;2023-11-19T09:22:01;18.73;;;4.97;;
44145;SDS011;29809;52.432;4.780;2023-11-19T09:24:26;21.90;;;5.28;;
44145;SDS011;29809;52.432;4.780;2023-11-19T09:26:51;17.58;;;4.30;;
44145;SDS011;29809;52.432;4.780;2023-11-19T09:29:17;17.92;;;4.45;;
44145;SDS011;29809;52.432;4.780;2023-11-19T09:31:42;13.32;;;4.38;;
44145;SDS011;29809;52.432;4.780;2023-11-19T09:34:07;17.73;;;4.65;;
44145;SDS011;29809;52.432;4.780;2023-11-19T09:36:33;19.67;;;4.25;;
44145;SDS011;29809;52.432;4.780;2023-11-19T09:38:58;19.50;;;4.90;;
44145;SDS011;29809;52.432;4.780;2023-11-19T09:41:25;15.68;;;4.50;;
44145;SDS011;29809;52.432;4.780;2023-11-19T09:43:53;17.10;;;4.55;;
44145;SDS011;29809;52.432;4.780;2023-11-19T09:46:18;20.55;;;4.95;;
44145;SDS011;29809;52.432;4.780;2023-11-19T09:48:44;16.85;;;5.00;;
44145;SDS011;29809;52.432;4.780;2023-11-19T09:51:10;17.90;;;4.75;;
44145;SDS011;29809;52.432;4.780;2023-11-19T09:53:35;19.45;;;4.45;;
44145;SDS011;29809;52.432;4.780;2023-11-19T09:56:02;12.75;;;4.28;;
44145;SDS011;29809;52.432;4.780;2023-11-19T09:58:31;16.38;;;4.45;;
44145;SDS011;29809;52.432;4.780;2023-11-19T10:00:56;14.35;;;3.50;;
44145;SDS011;29809;52.432;4.780;2023-11-19T10:03:24;13.18;;;3.97;;
44145;SDS011;29809;52.432;4.780;2023-11-19T10:05:49;14.00;;;4.38;;
44145;SDS011;29809;52.432;4.780;2023-11-19T10:08:14;17.80;;;5.13;;
44145;SDS011;29809;52.432;4.780;2023-11-19T10:10:41;17.98;;;5.20;;
44145;SDS011;29809;52.432;4.780;2023-11-19T10:13:06;16.40;;;4.57;;
44145;SDS011;29809;52.432;4.780;2023-11-19T10:15:36;17.92;;;4.30;;
44145;SDS011;29809;52.432;4.780;2023-11-19T10:18:01;13.18;;;4.07;;
44145;SDS011;29809;52.432;4.780;2023-11-19T10:20:27;16.30;;;4.65;;
44145;SDS011;29809;52.432;4.780;2023-11-19T10:22:52;21.27;;;5.10;;
44145;SDS011;29809;52.432;4.780;2023-11-19T10:25:21;18.95;;;4.18;;
44145;SDS011;29809;52.432;4.780;2023-11-19T10:27:47;19.00;;;5.00;;
44145;SDS011;29809;52.432;4.780;2023-11-19T10:30:13;18.33;;;4.82;;
44145;SDS011;29809;52.432;4.780;2023-11-19T10:32:38;14.45;;;4.22;;
44145;SDS011;29809;52.432;4.780;2023-11-19T10:35:06;16.73;;;3.83;;
44145;SDS011;29809;52.432;4.780;2023-11-19T10:37:32;13.23;;;3.25;;
44145;SDS011;29809;52.432;4.780;2023-11-19T10:40:00;20.95;;;4.68;;
44145;SDS011;29809;52.432;4.780;2023-11-19T10:42:25;16.05;;;4.72;;
44145;SDS011;29809;52.432;4.780;2023-11-19T10:44:50;16.67;;;4.07;;
44145;SDS011;29809;52.432;4.780;2023-11-19T10:47:17;15.23;;;4.68;;
44145;SDS011;29809;52.432;4.780;2023-11-19T10:49:44;12.90;;;3.50;;
44145;SDS011;29809;52.432;4.780;2023-11-19T10:52:11;20.70;;;5.10;;
44145;SDS011;29809;52.432;4.780;2023-11-19T10:54:36;16.52;;;4.55;;
44145;SDS011;29809;52.432;4.780;2023-11-19T10:57:02;15.80;;;4.10;;
44145;SDS011;29809;52.432;4.780;2023-11-19T10:59:30;11.50;;;3.53;;
44145;SDS011;29809;52.432;4.780;2023-11-19T11:01:57;12.65;;;3.78;;
44145;SDS011;29809;52.432;4.780;2023-11-19T11:04:23;16.13;;;3.85;;
44145;SDS011;29809;52.432;4.780;2023-11-19T11:06:49;18.77;;;4.25;;
44145;SDS011;29809;52.432;4.780;2023-11-19T11:09:15;14.45;;;4.15;;
44145;SDS011;29809;52.432;4.780;2023-11-19T11:11:41;16.77;;;3.65;;
44145;SDS011;29809;52.432;4.780;2023-11-19T11:14:12;15.98;;;3.45;;
44145;SDS011;29809;52.432;4.780;2023-11-19T11:16:37;17.70;;;4.00;;
44145;SDS011;29809;52.432;4.780;2023-11-19T11:19:05;16.38;;;3.75;;
44145;SDS011;29809;52.432;4.780;2023-11-19T11:21:31;18.88;;;4.53;;
44145;SDS011;29809;52.432;4.780;2023-11-19T11:28:52;16.60;;;4.07;;
44145;SDS011;29809;52.432;4.780;2023-11-19T11:39:24;12.93;;;4.55;;
44145;SDS011;29809;52.432;4.780;2023-11-19T11:42:35;14.75;;;3.55;;
44145;SDS011;29809;52.432;4.780;2023-11-19T11:47:19;19.75;;;4.25;;
44145;SDS011;29809;52.432;4.780;2023-11-19T11:49:45;21.30;;;5.15;;
44145;SDS011;29809;52.432;4.780;2023-11-19T11:52:10;13.57;;;3.80;;
44145;SDS011;29809;52.432;4.780;2023-11-19T11:54:39;15.18;;;3.78;;
44145;SDS011;29809;52.432;4.780;2023-11-19T11:57:12;12.23;;;3.95;;
44145;SDS011;29809;52.432;4.780;2023-11-19T12:02:09;16.85;;;4.60;;
44145;SDS011;29809;52.432;4.780;2023-11-19T12:04:35;18.30;;;4.45;;
44145;SDS011;29809;52.432;4.780;2023-11-19T12:07:04;11.20;;;3.55;;
44145;SDS011;29809;52.432;4.780;2023-11-19T12:09:30;14.95;;;4.28;;
44145;SDS011;29809;52.432;4.780;2023-11-19T12:12:12;14.63;;;3.75;;
44145;SDS011;29809;52.432;4.780;2023-11-19T12:19:59;15.35;;;3.60;;
44145;SDS011;29809;52.432;4.780;2023-11-19T12:22:25;12.55;;;3.53;;
44145;SDS011;29809;52.432;4.780;2023-11-19T12:24:50;16.17;;;4.05;;
44145;SDS011;29809;52.432;4.780;2023-11-19T12:27:17;12.05;;;4.15;;
44145;SDS011;29809;52.432;4.780;2023-11-19T12:29:42;15.35;;;3.85;;
44145;SDS011;29809;52.432;4.780;2023-11-19T12:32:09;12.65;;;3.38;;
44145;SDS011;29809;52.432;4.780;2023-11-19T12:34:34;12.65;;;3.60;;
44145;SDS011;29809;52.432;4.780;2023-11-19T12:37:03;15.93;;;3.78;;
44145;SDS011;29809;52.432;4.780;2023-11-19T12:39:32;14.00;;;3.70;;
44145;SDS011;29809;52.432;4.780;2023-11-19T12:41:57;17.58;;;4.13;;
44145;SDS011;29809;52.432;4.780;2023-11-19T12:44:25;15.20;;;3.72;;
44145;SDS011;29809;52.432;4.780;2023-11-19T12:47:00;12.90;;;4.13;;
44145;SDS011;29809;52.432;4.780;2023-11-19T12:49:28;10.45;;;3.25;;
44145;SDS011;29809;52.432;4.780;2023-11-19T12:51:53;15.23;;;4.25;;
44145;SDS011;29809;52.432;4.780;2023-11-19T12:54:19;15.80;;;3.88;;
44145;SDS011;29809;52.432;4.780;2023-11-19T12:56:53;13.82;;;3.67;;
44145;SDS011;29809;52.432;4.780;2023-11-19T12:59:18;17.30;;;4.18;;
44145;SDS011;29809;52.432;4.780;2023-11-19T13:01:56;14.43;;;3.83;;
44145;SDS011;29809;52.432;4.780;2023-11-19T13:04:22;18.33;;;4.55;;
44145;SDS011;29809;52.432;4.780;2023-11-19T13:06:47;19.92;;;4.18;;
44145;SDS011;29809;52.432;4.780;2023-11-19T13:09:22;18.15;;;3.97;;
44145;SDS011;29809;52.432;4.780;2023-11-19T13:11:48;12.25;;;3.50;;
44145;SDS011;29809;52.432;4.780;2023-11-19T13:14:14;16.17;;;3.42;;
44145;SDS011;29809;52.432;4.780;2023-11-19T13:16:39;16.40;;;4.85;;
44145;SDS011;29809;52.432;4.780;2023-11-19T13:19:04;18.40;;;4.57;;
44145;SDS011;29809;52.432;4.780;2023-11-19T13:21:30;20.95;;;3.65;;
44145;SDS011;29809;52.432;4.780;2023-11-19T13:23:55;16.08;;;4.05;;
44145;SDS011;29809;52.432;4.780;2023-11-19T13:26:21;15.60;;;3.78;;
44145;SDS011;29809;52.432;4.780;2023-11-19T13:28:46;14.20;;;4.60;;
44145;SDS011;29809;52.432;4.780;2023-11-19T13:31:11;16.85;;;4.22;;
44145;SDS011;29809;52.432;4.780;2023-11-19T13:33:37;10.85;;;3.35;;
44145;SDS011;29809;52.432;4.780;2023-11-19T13:36:02;13.93;;;4.00;;
44145;SDS011;29809;52.432;4.780;2023-11-19T13:38:33;11.55;;;3.58;;
44145;SDS011;29809;52.432;4.780;2023-11-19T13:41:00;12.15;;;3.40;;
44145;SDS011;29809;52.432;4.780;2023-11-19T13:43:25;12.48;;;3.38;;
44145;SDS011;29809;52.432;4.780;2023-11-19T13:45:51;12.20;;;3.10;;
44145;SDS011;29809;52.432;4.780;2023-11-19T13:48:18;13.50;;;3.63;;
44145;SDS011;29809;52.432;4.780;2023-11-19T13:50:43;14.07;;;3.88;;
44145;SDS011;29809;52.432;4.780;2023-11-19T13:53:08;14.40;;;3.78;;
44145;SDS011;29809;52.432;4.780;2023-11-19T13:55:33;18.17;;;4.18;;
44145;SDS011;29809;52.432;4.780;2023-11-19T13:57:59;15.23;;;3.13;;
44145;SDS011;29809;52.432;4.780;2023-11-19T14:00:24;9.32;;;2.88;;
44145;SDS011;29809;52.432;4.780;2023-11-19T14:02:50;12.63;;;3.30;;
44145;SDS011;29809;52.432;4.780;2023-11-19T14:05:15;12.32;;;3.35;;
44145;SDS011;29809;52.432;4.780;2023-11-19T14:07:42;16.40;;;3.90;;
44145;SDS011;29809;52.432;4.780;2023-11-19T14:10:08;10.88;;;3.38;;
44145;SDS011;29809;52.432;4.780;2023-11-19T14:12:34;11.93;;;2.90;;
44145;SDS011;29809;52.432;4.780;2023-11-19T14:15:00;18.75;;;3.28;;
44145;SDS011;29809;52.432;4.780;2023-11-19T14:17:25;12.30;;;3.88;;
44145;SDS011;29809;52.432;4.780;2023-11-19T14:19:51;11.70;;;3.67;;
44145;SDS011;29809;52.432;4.780;2023-11-19T14:22:16;12.73;;;3.78;;
44145;SDS011;29809;52.432;4.780;2023-11-19T14:24:41;8.88;;;3.03;;
44145;SDS011;29809;52.432;4.780;2023-11-19T14:27:08;10.57;;;3.33;;
44145;SDS011;29809;52.432;4.780;2023-11-19T14:29:33;11.13;;;3.45;;
44145;SDS011;29809;52.432;4.780;2023-11-19T14:32:00;15.93;;;4.18;;
44145;SDS011;29809;52.432;4.780;2023-11-19T14:34:25;10.60;;;2.90;;
44145;SDS011;29809;52.432;4.780;2023-11-19T14:36:51;13.73;;;3.17;;
44145;SDS011;29809;52.432;4.780;2023-11-19T14:39:16;12.43;;;3.22;;
44145;SDS011;29809;52.432;4.780;2023-11-19T14:41:44;11.05;;;3.28;;
44145;SDS011;29809;52.432;4.780;2023-11-19T14:44:10;15.38;;;3.65;;
44145;SDS011;29809;52.432;4.780;2023-11-19T14:46:35;12.48;;;3.15;;
44145;SDS011;29809;52.432;4.780;2023-11-19T14:49:00;14.55;;;4.13;;
44145;SDS011;29809;52.432;4.780;2023-11-19T14:51:26;11.73;;;3.33;;
44145;SDS011;29809;52.432;4.780;2023-11-19T14:53:51;18.00;;;3.40;;